createdAt,value
2022-09-27T00:02:52.541Z,22.86
2022-09-27T00:07:56.033Z,22.85
2022-09-27T00:12:59.441Z,22.81
2022-09-27T00:18:03.202Z,22.78
2022-09-27T00:23:06.584Z,22.76
2022-09-27T00:28:10.037Z,22.74
2022-09-27T00:33:13.201Z,22.67
2022-09-27T00:38:16.831Z,22.66
2022-09-27T00:43:23.627Z,22.65
2022-09-27T00:48:31.744Z,22.58
2022-09-27T00:53:41.924Z,22.54
2022-09-27T00:58:53.334Z,22.51
2022-09-27T01:04:17.063Z,22.48
2022-09-27T01:09:21.458Z,22.46
2022-09-27T01:14:34.076Z,22.44
2022-09-27T01:20:22.047Z,22.41
2022-09-27T01:25:26.479Z,22.38
2022-09-27T01:31:00.214Z,22.32
2022-09-27T01:36:12.019Z,22.32
2022-09-27T01:41:26.595Z,22.29
2022-09-27T01:46:42.456Z,22.28
2022-09-27T01:52:09.258Z,22.26
2022-09-27T01:57:17.591Z,22.25
2022-09-27T02:02:26.576Z,22.24
2022-09-27T02:08:18.905Z,22.24
2022-09-27T02:13:58.911Z,22.23
2022-09-27T02:19:40.626Z,22.21
2022-09-27T02:24:53.075Z,22.23
2022-09-27T02:30:05.958Z,22.24
2022-09-27T02:35:16.240Z,22.21
2022-09-27T02:40:20.581Z,22.19
2022-09-27T02:45:28.384Z,22.20
2022-09-27T02:50:55.218Z,22.17
2022-09-27T02:56:26.802Z,22.16
2022-09-27T03:02:13.799Z,22.14
2022-09-27T03:07:36.519Z,22.13
2022-09-27T03:12:39.852Z,22.10
2022-09-27T03:17:43.473Z,22.09
2022-09-27T03:23:05.397Z,22.08
2022-09-27T03:28:09.370Z,22.08
2022-09-27T03:33:14.254Z,22.07
2022-09-27T03:38:32.961Z,22.05
2022-09-27T03:43:36.368Z,22.03
2022-09-27T03:48:40.899Z,22.02
2022-09-27T03:53:44.427Z,22.01
2022-09-27T03:58:48.268Z,22.02
2022-09-27T04:03:52.590Z,22.04
2022-09-27T04:09:09.466Z,22.10
2022-09-27T04:14:32.901Z,22.13
2022-09-27T04:19:56.589Z,22.17
2022-09-27T04:25:01.333Z,22.28
2022-09-27T04:30:15.420Z,22.38
2022-09-27T04:35:48.695Z,22.48
2022-09-27T04:40:52.429Z,22.58
2022-09-27T04:45:56.634Z,22.69
2022-09-27T04:51:02.249Z,23.03
2022-09-27T04:56:06.245Z,24.35
2022-09-27T05:01:11.418Z,25.26
2022-09-27T05:06:33.276Z,25.74
2022-09-27T05:11:43.255Z,26.03
2022-09-27T05:16:54.115Z,25.86
2022-09-27T05:22:16.171Z,25.47
2022-09-27T05:27:20.698Z,25.18
2022-09-27T05:32:24.489Z,24.99
2022-09-27T05:37:58.783Z,24.78
2022-09-27T05:43:04.487Z,24.68
2022-09-27T05:48:07.939Z,24.68
2022-09-27T05:53:19.164Z,24.74
2022-09-27T05:58:23.302Z,24.77
2022-09-27T06:03:37.103Z,24.77
2022-09-27T06:09:03.761Z,24.78
2022-09-27T06:14:08.654Z,24.85
2022-09-27T06:19:23.720Z,24.92
2022-09-27T06:24:27.139Z,24.93
2022-09-27T06:29:31.038Z,24.98
2022-09-27T06:34:37.649Z,25.05
2022-09-27T06:39:41.222Z,25.11
2022-09-27T06:45:13.889Z,25.17
2022-09-27T06:50:54.172Z,25.24
2022-09-27T06:56:01.584Z,25.34
2022-09-27T07:01:14.532Z,25.42
2022-09-27T07:06:40.604Z,25.50
2022-09-27T07:11:57.504Z,25.55
2022-09-27T07:17:00.753Z,25.56
2022-09-27T07:22:11.134Z,25.68
2022-09-27T07:27:16.072Z,25.85
2022-09-27T07:32:19.836Z,25.96
2022-09-27T07:37:24.675Z,26.09
2022-09-27T07:42:28.686Z,26.34
2022-09-27T07:47:33.573Z,26.59
2022-09-27T07:52:52.989Z,26.85
2022-09-27T07:58:31.814Z,27.13
2022-09-27T08:03:37.722Z,27.52
2022-09-27T08:08:41.336Z,27.82
2022-09-27T08:13:46.288Z,28.03
2022-09-27T08:18:49.929Z,28.12
2022-09-27T08:24:11.927Z,28.10
2022-09-27T08:29:40.942Z,28.14
2022-09-27T08:34:44.280Z,28.19
2022-09-27T08:39:48.277Z,28.25
2022-09-27T08:45:12.415Z,28.28
2022-09-27T08:50:28.067Z,28.34
2022-09-27T08:55:49.950Z,28.38
2022-09-27T09:01:19.528Z,28.42
2022-09-27T09:07:42.249Z,28.48
2022-09-27T09:12:58.751Z,28.57
2022-09-27T09:18:22.765Z,28.65
2022-09-27T09:23:59.885Z,28.65
2022-09-27T09:29:37.998Z,28.61
2022-09-27T09:34:47.605Z,28.57
2022-09-27T09:39:54.867Z,28.56
2022-09-27T09:45:02.668Z,28.52
2022-09-27T09:50:34.171Z,28.49
2022-09-27T09:55:40.600Z,28.42
2022-09-27T10:00:45.943Z,28.35
2022-09-27T10:05:50.157Z,28.30
2022-09-27T10:10:54.459Z,28.25
2022-09-27T10:16:04.463Z,28.16
2022-09-27T10:21:20.730Z,28.13
2022-09-27T10:26:24.741Z,28.11
2022-09-27T10:31:36.398Z,28.11
2022-09-27T10:37:14.425Z,28.07
2022-09-27T10:42:33.955Z,28.03
2022-09-27T10:47:38.610Z,27.98
2022-09-27T10:53:06.368Z,27.89
2022-09-27T10:58:20.416Z,27.80
2022-09-27T11:03:24.931Z,27.77
2022-09-27T11:08:33.321Z,27.82
2022-09-27T11:13:59.391Z,27.85
2022-09-27T11:19:24.607Z,27.89
2022-09-27T11:24:56.398Z,27.92
2022-09-27T11:30:13.330Z,28.02
2022-09-27T11:35:45.612Z,28.13
2022-09-27T11:41:15.080Z,28.27
2022-09-27T11:46:38.540Z,28.34
2022-09-27T11:52:04.461Z,28.45
2022-09-27T11:57:35.364Z,28.56
2022-09-27T12:03:13.046Z,28.55
2022-09-27T12:08:27.070Z,28.58
2022-09-27T12:13:47.023Z,28.56
2022-09-27T12:18:52.580Z,28.58
2022-09-27T12:24:24.871Z,28.58
2022-09-27T12:29:45.901Z,28.57
2022-09-27T12:35:10.924Z,28.58
2022-09-27T12:40:20.515Z,28.56
2022-09-27T12:45:43.692Z,28.53
2022-09-27T12:50:53.694Z,28.48
2022-09-27T12:56:18.649Z,28.39
2022-09-27T13:01:25.295Z,28.28
2022-09-27T13:06:29.270Z,28.27
2022-09-27T13:11:47.701Z,28.23
2022-09-27T13:16:51.352Z,28.21
2022-09-27T13:21:58.144Z,28.13
2022-09-27T13:27:28.044Z,28.04
2022-09-27T13:32:35.942Z,28.02
2022-09-27T13:37:55.723Z,27.98
2022-09-27T13:43:13.084Z,27.93
2022-09-27T13:48:27.846Z,27.85
2022-09-27T13:53:38.544Z,27.83
2022-09-27T13:59:01.812Z,27.80
2022-09-27T14:04:41.035Z,27.70
2022-09-27T14:09:49.510Z,27.64
2022-09-27T14:15:04.464Z,27.59
2022-09-27T14:20:34.614Z,27.49
2022-09-27T14:25:46.424Z,27.39
2022-09-27T14:31:07.260Z,27.31
2022-09-27T14:36:33.078Z,27.24
2022-09-27T14:41:41.482Z,27.16
2022-09-27T14:47:19.465Z,27.07
2022-09-27T14:52:34.098Z,26.96
2022-09-27T14:57:40.083Z,26.85
2022-09-27T15:02:44.304Z,26.73
2022-09-27T15:07:48.673Z,26.63
2022-09-27T15:12:55.322Z,26.51
2022-09-27T15:17:59.945Z,26.38
2022-09-27T15:23:05.874Z,26.22
2022-09-27T15:28:12.293Z,26.09
2022-09-27T15:33:29.475Z,25.92
2022-09-27T15:38:46.606Z,25.77
2022-09-27T15:43:52.429Z,25.63
2022-09-27T15:49:19.959Z,25.50
2022-09-27T15:54:25.997Z,25.41
2022-09-27T15:59:34.869Z,25.34
2022-09-27T16:04:38.200Z,25.26
2022-09-27T16:09:41.575Z,25.18
2022-09-27T16:14:45.211Z,25.10
2022-09-27T16:19:48.648Z,25.03
2022-09-27T16:24:52.123Z,24.95
2022-09-27T16:29:55.394Z,24.84
2022-09-27T16:34:59.032Z,24.78
2022-09-27T16:40:04.329Z,24.69
2022-09-27T16:45:11.835Z,24.66
2022-09-27T16:50:17.446Z,24.61
2022-09-27T16:55:21.089Z,24.57
2022-09-27T17:00:24.575Z,24.55
2022-09-27T17:05:27.861Z,24.50
2022-09-27T17:10:31.597Z,24.47
2022-09-27T17:15:37.249Z,24.41
2022-09-27T17:20:41.004Z,24.37
2022-09-27T17:25:44.282Z,24.33
2022-09-27T17:30:47.514Z,24.29
2022-09-27T17:35:59.232Z,24.28
2022-09-27T17:41:07.665Z,24.28
2022-09-27T17:46:11.151Z,24.25
2022-09-27T17:51:14.568Z,24.15
2022-09-27T17:56:17.947Z,24.21
2022-09-27T18:01:23.199Z,24.20
2022-09-27T18:06:26.561Z,24.18
2022-09-27T18:11:30.092Z,24.15
2022-09-27T18:16:36.710Z,24.13
2022-09-27T18:21:40.567Z,24.12
2022-09-27T18:26:44.876Z,24.10
2022-09-27T18:31:49.148Z,24.08
2022-09-27T18:36:52.648Z,24.09
2022-09-27T18:41:56.093Z,24.08
2022-09-27T18:47:00.007Z,24.07
2022-09-27T18:52:05.010Z,24.07
2022-09-27T18:57:08.596Z,24.07
2022-09-27T19:02:11.748Z,24.07
2022-09-27T19:07:15.091Z,24.02
2022-09-27T19:12:18.339Z,24.02
2022-09-27T19:17:21.742Z,23.67
2022-09-27T19:22:25.161Z,23.25
2022-09-27T19:27:30.748Z,22.97
2022-09-27T19:32:33.848Z,22.83
2022-09-27T19:37:37.346Z,22.76
2022-09-27T19:42:43.524Z,22.74
2022-09-27T19:47:47.753Z,22.71
2022-09-27T19:52:51.769Z,22.72
2022-09-27T19:57:57.044Z,22.75
2022-09-27T20:03:00.683Z,22.78
2022-09-27T20:08:04.277Z,22.82
2022-09-27T20:13:08.017Z,22.82
2022-09-27T20:18:12.458Z,22.85
2022-09-27T20:23:18.172Z,22.88
2022-09-27T20:28:22.347Z,22.95
2022-09-27T20:33:26.869Z,23.00
2022-09-27T20:38:30.184Z,23.00
2022-09-27T20:43:33.437Z,23.04
2022-09-27T20:48:36.667Z,23.02
2022-09-27T20:53:42.024Z,23.06
2022-09-27T20:58:49.105Z,23.07
2022-09-27T21:03:57.595Z,23.11
2022-09-27T21:09:03.950Z,23.14
2022-09-27T21:14:07.616Z,23.13
2022-09-27T21:19:11.241Z,23.14
2022-09-27T21:24:14.849Z,23.13
2022-09-27T21:29:18.399Z,23.13
2022-09-27T21:34:21.774Z,23.12
2022-09-27T21:39:31.436Z,23.12
2022-09-27T21:44:41.203Z,23.15
2022-09-27T21:49:46.879Z,23.15
2022-09-27T21:54:50.084Z,23.13
2022-09-27T21:59:54.831Z,23.17
2022-09-27T22:05:00.599Z,23.14
2022-09-27T22:10:06.055Z,23.14
2022-09-27T22:15:10.193Z,23.12
2022-09-27T22:20:13.689Z,23.10
2022-09-27T22:25:17.212Z,23.10
2022-09-27T22:30:20.632Z,23.08
2022-09-27T22:35:24.072Z,23.07
2022-09-27T22:40:27.214Z,23.06
2022-09-27T22:45:30.503Z,23.05
2022-09-27T22:50:34.037Z,23.01
2022-09-27T22:55:38.302Z,23.00
2022-09-27T23:00:42.112Z,23.00
2022-09-27T23:05:45.619Z,22.98
2022-09-27T23:10:48.727Z,22.94
2022-09-27T23:15:52.428Z,22.92
2022-09-27T23:20:58.991Z,22.92
2022-09-27T23:26:06.253Z,22.90
2022-09-27T23:31:14.915Z,22.90
2022-09-27T23:36:20.407Z,22.88
2022-09-27T23:41:24.211Z,22.85
2022-09-27T23:46:27.912Z,22.84
2022-09-27T23:51:31.461Z,22.79
2022-09-27T23:56:34.787Z,22.79
